Antalya, Turkey

03:59 EEST dnia 24-lipiec-2016 (GMT +0300)
Antalya | | Change Station

Wysokość 174 ft 36.90 °N, 30.80 °E | Updated 39 minutes ago

Clear
pogodnie
77 ° F
Odczuwalna 77 ° F
Płn.
8
Wiatr zmienny Wiatr od północny

Dziś
Wysoka -- | Niska -- ° F
--% Prawdop. opadów
Wczoraj
Wysoka -- | Niska -- ° F
Precip. -- cali
Ciśnienie 29.68 cali
Widzialność -9999.0 mil
chmury
Punkt rosy 66 ° F
Wilgotność 69%
Opady deszczu 0.00 cali
grubość pokrywy śnieżnej Niedostępne.
5:56 AM 8:10 PM
Zmniejszający się Księżyc, 81% visible
METAR LTAI 240020Z 35007KT CAVOK 25/19 Q1005 NOSIG RMK RWY18C 33006KT RWY36R 32008KT RWY18L 33008KT
Ciśnienie 29.68 cali
Widzialność -9999.0 mil
chmury
Punkt rosy 66 ° F
Wilgotność 69%
Opady deszczu 0.00 cali
grubość pokrywy śnieżnej Niedostępne.
5:56 AM 8:10 PM
Zmniejszający się Księżyc, 81% visible
METAR LTAI 240020Z 35007KT CAVOK 25/19 Q1005 NOSIG RMK RWY18C 33006KT RWY36R 32008KT RWY18L 33008KT

10-Day Weather Forecast

×

Almanac

Astronomia

Jul. 24, 2016 Wschód Zachów
Aktualny czas
Zmierzch cywilny
Zmierzch żeglarski
świt/zmierzch astronomiczny
Księżyc
całkowite oświetlenie
Długość dnia
Tomorrow will be .
, % of the Moon is Illuminated

Dzisiejsze ekstrema

Country Highs Country Lows

Community

WunderPhotos

Upload Photos

1,926,985 zdjęcia zostały przesłane!

WunderBlog® & News

Nearby

Jakość powietrza

  Jakość powietrza czynnik AQ Zanieczyszczenie
Not available.

Głębokość pokrywy śnieżnej

Station Depth n.p.m.

Aktywność sejsmiczna

Miejscowość Distance Mag. Time & Date
Minimum magnitude displayed is 2.5.

Temperatury wody na wybrzeżu

Miejsce Temperatura

Stations

Najbliższa stacja pogodowa

Lokalizacja stacji Temp. czynnik chłodzący wiatru Punkt rosy Wilgotność Wiatr Precip. Wysokość Uaktualniono Typ